createdAt,value
2023-01-02T00:00:22.061Z,448.55
2023-01-02T00:00:55.001Z,453.17
2023-01-02T00:01:27.335Z,452.45
2023-01-02T00:01:59.640Z,451.42
2023-01-02T00:02:32.047Z,447.50
2023-01-02T00:03:04.626Z,450.33
2023-01-02T00:03:37.169Z,447.90
2023-01-02T00:04:09.773Z,449.02
2023-01-02T00:04:42.133Z,443.80
2023-01-02T00:05:14.596Z,447.83
2023-01-02T00:05:46.876Z,454.98
2023-01-02T00:06:19.513Z,452.08
2023-01-02T00:06:51.982Z,451.63
2023-01-02T00:07:25.098Z,456.73
2023-01-02T00:07:57.835Z,454.20
2023-01-02T00:08:30.344Z,446.30
2023-01-02T00:09:06.574Z,454.50
2023-01-02T00:09:39.023Z,452.42
2023-01-02T00:10:11.353Z,447.63
2023-01-02T00:10:44.278Z,449.55
2023-01-02T00:11:16.784Z,451.30
2023-01-02T00:11:49.301Z,449.33
2023-01-02T00:12:22.641Z,451.88
2023-01-02T00:12:54.975Z,448.27
2023-01-02T00:13:27.703Z,458.17
2023-01-02T00:14:01.892Z,452.42
2023-01-02T00:14:34.178Z,454.63
2023-01-02T00:15:06.832Z,449.70
2023-01-02T00:15:39.179Z,450.95
2023-01-02T00:16:11.676Z,447.02
2023-01-02T00:16:43.994Z,448.38
2023-01-02T00:17:19.054Z,445.77
2023-01-02T00:17:51.338Z,441.05
2023-01-02T00:18:23.824Z,434.88
2023-01-02T00:18:56.497Z,444.65
2023-01-02T00:19:28.907Z,438.02
2023-01-02T00:20:01.287Z,440.05
2023-01-02T00:20:33.770Z,441.95
2023-01-02T00:21:06.526Z,437.02
2023-01-02T00:21:38.809Z,443.75
2023-01-02T00:22:11.183Z,442.45
2023-01-02T00:22:43.499Z,441.88
2023-01-02T00:23:15.811Z,437.40
2023-01-02T00:23:48.108Z,440.80
2023-01-02T00:24:20.813Z,438.52
2023-01-02T00:24:53.219Z,436.73
2023-01-02T00:25:26.854Z,443.50
2023-01-02T00:25:59.503Z,443.00
2023-01-02T00:26:31.795Z,440.67
2023-01-02T00:27:04.273Z,434.40
2023-01-02T00:27:36.643Z,430.88
2023-01-02T00:28:09.067Z,442.70
2023-01-02T00:28:41.745Z,446.92
2023-01-02T00:29:14.087Z,443.23
2023-01-02T00:29:46.517Z,442.15
2023-01-02T00:30:18.963Z,449.35
2023-01-02T00:30:51.856Z,444.25
2023-01-02T00:31:24.254Z,438.05
2023-01-02T00:31:56.538Z,441.08
2023-01-02T00:32:30.680Z,438.25
2023-01-02T00:33:03.050Z,446.90
2023-01-02T00:33:36.179Z,441.20
2023-01-02T00:34:08.935Z,442.92
2023-01-02T00:34:41.228Z,448.80
2023-01-02T00:35:13.792Z,442.75
2023-01-02T00:35:46.271Z,447.90
2023-01-02T00:36:19.039Z,437.17
2023-01-02T00:36:51.755Z,441.48
2023-01-02T00:37:24.045Z,443.13
2023-01-02T00:37:56.348Z,443.95
2023-01-02T00:38:28.867Z,445.10
2023-01-02T00:39:01.225Z,439.08
2023-01-02T00:39:33.715Z,442.15
2023-01-02T00:40:06.401Z,441.13
2023-01-02T00:40:38.794Z,441.30
2023-01-02T00:41:11.202Z,447.50
2023-01-02T00:41:43.564Z,443.42
2023-01-02T00:42:15.985Z,439.75
2023-01-02T00:42:48.327Z,440.35
2023-01-02T00:43:20.680Z,437.33
2023-01-02T00:43:53.081Z,443.10
2023-01-02T00:44:25.354Z,440.27
2023-01-02T00:44:58.175Z,438.98
2023-01-02T00:45:30.567Z,442.27
2023-01-02T00:46:09.222Z,446.23
2023-01-02T00:46:43.437Z,448.50
2023-01-02T00:47:15.776Z,448.75
2023-01-02T00:47:48.696Z,449.77
2023-01-02T00:48:21.510Z,448.35
2023-01-02T00:48:53.976Z,440.75
2023-01-02T00:49:26.402Z,446.10
2023-01-02T00:49:58.695Z,446.02
2023-01-02T00:50:31.805Z,440.10
2023-01-02T00:51:04.307Z,443.13
2023-01-02T00:51:36.622Z,443.92
2023-01-02T00:52:09.013Z,439.67
2023-01-02T00:52:41.508Z,437.00
2023-01-02T00:53:13.780Z,442.38
2023-01-02T00:53:46.244Z,439.75
2023-01-02T00:54:18.595Z,445.17
2023-01-02T00:54:51.057Z,446.52
2023-01-02T00:55:23.345Z,446.75
2023-01-02T00:55:55.713Z,441.00
2023-01-02T00:56:28.027Z,442.73
2023-01-02T00:57:00.685Z,443.60
2023-01-02T00:57:33.195Z,443.75
2023-01-02T00:58:05.639Z,442.02
2023-01-02T00:58:39.247Z,440.05
2023-01-02T00:59:11.540Z,439.42
2023-01-02T00:59:43.890Z,439.13
2023-01-02T01:00:23.485Z,440.60
2023-01-02T01:00:56.375Z,442.83
2023-01-02T01:01:28.835Z,442.77
2023-01-02T01:02:01.277Z,440.48
2023-01-02T01:02:33.801Z,429.85
2023-01-02T01:03:06.392Z,445.27
2023-01-02T01:03:39.008Z,442.13
2023-01-02T01:04:11.503Z,437.27
2023-01-02T01:04:43.809Z,430.88
2023-01-02T01:05:16.356Z,447.45
2023-01-02T01:05:48.816Z,444.58
2023-01-02T01:06:21.771Z,446.55
2023-01-02T01:06:54.108Z,442.25
2023-01-02T01:07:26.568Z,444.35
2023-01-02T01:07:59.369Z,445.77
2023-01-02T01:08:31.652Z,444.08
2023-01-02T01:09:04.477Z,446.02
2023-01-02T01:09:36.754Z,444.60
2023-01-02T01:10:09.075Z,443.85
2023-01-02T01:10:41.391Z,446.73
2023-01-02T01:11:15.639Z,444.77
2023-01-02T01:11:48.104Z,442.92
2023-01-02T01:12:20.437Z,438.63
2023-01-02T01:12:53.044Z,441.65
2023-01-02T01:13:25.530Z,444.77
2023-01-02T01:13:58.497Z,437.88
2023-01-02T01:14:30.945Z,444.60
2023-01-02T01:15:03.339Z,439.55
2023-01-02T01:15:36.116Z,446.33
2023-01-02T01:16:12.851Z,447.75
2023-01-02T01:16:45.419Z,448.77
2023-01-02T01:17:19.430Z,449.33
2023-01-02T01:17:51.720Z,449.40
2023-01-02T01:18:24.143Z,450.65
2023-01-02T01:18:57.042Z,446.42
2023-01-02T01:19:30.245Z,447.25
2023-01-02T01:20:02.640Z,450.45
2023-01-02T01:20:37.963Z,444.20
2023-01-02T01:21:11.551Z,450.63
2023-01-02T01:21:44.043Z,443.48
2023-01-02T01:22:16.321Z,441.92
2023-01-02T01:22:48.824Z,443.08
2023-01-02T01:23:21.379Z,438.95
2023-01-02T01:23:54.758Z,444.50
2023-01-02T01:24:27.094Z,445.13
2023-01-02T01:24:59.646Z,443.60
2023-01-02T01:25:31.973Z,442.33
2023-01-02T01:26:05.344Z,440.00
2023-01-02T01:26:37.640Z,442.08
2023-01-02T01:27:10.004Z,445.67
2023-01-02T01:27:42.708Z,434.58
2023-01-02T01:28:15.196Z,435.42
2023-01-02T01:28:47.972Z,442.17
2023-01-02T01:29:20.372Z,442.63
2023-01-02T01:29:52.684Z,443.10
2023-01-02T01:30:25.029Z,443.45
2023-01-02T01:31:01.218Z,443.85
2023-01-02T01:31:33.617Z,444.05
2023-01-02T01:32:06.469Z,441.63
2023-01-02T01:32:38.905Z,444.67
2023-01-02T01:33:11.301Z,442.48
2023-01-02T01:33:44.433Z,442.98
2023-01-02T01:34:16.762Z,437.30
2023-01-02T01:34:49.090Z,438.85
2023-01-02T01:35:21.411Z,432.08
2023-01-02T01:35:53.711Z,438.15
2023-01-02T01:36:26.059Z,442.38
2023-01-02T01:36:58.419Z,441.25
2023-01-02T01:37:30.994Z,440.45
2023-01-02T01:38:03.280Z,434.48
2023-01-02T01:38:35.813Z,444.95
2023-01-02T01:39:09.833Z,444.67
2023-01-02T01:39:42.366Z,447.23
2023-01-02T01:40:14.663Z,439.98
2023-01-02T01:40:46.959Z,442.08
2023-01-02T01:41:20.459Z,441.88
2023-01-02T01:41:52.810Z,437.80
2023-01-02T01:42:25.227Z,442.60
2023-01-02T01:43:00.922Z,436.48
2023-01-02T01:43:42.838Z,441.67
2023-01-02T01:44:33.508Z,438.17
2023-01-02T01:45:12.769Z,448.45
2023-01-02T01:45:45.253Z,440.00
2023-01-02T01:46:17.664Z,446.23
2023-01-02T01:46:50.736Z,443.50
2023-01-02T01:47:37.986Z,452.10
2023-01-02T01:48:13.314Z,439.88
2023-01-02T01:48:46.481Z,448.15
2023-01-02T01:49:29.245Z,447.27
2023-01-02T01:50:05.806Z,452.65
2023-01-02T01:50:38.604Z,450.75
2023-01-02T01:51:11.257Z,442.75
2023-01-02T01:51:55.513Z,448.67
2023-01-02T01:52:31.624Z,448.02
2023-01-02T01:53:09.452Z,445.30
2023-01-02T01:53:42.178Z,443.15
2023-01-02T01:54:15.719Z,443.52
2023-01-02T01:55:08.653Z,449.65
2023-01-02T01:55:46.108Z,451.17
2023-01-02T01:56:18.423Z,452.40
2023-01-02T01:56:52.422Z,444.50
2023-01-02T01:57:28.934Z,450.35
2023-01-02T01:58:02.911Z,437.50
2023-01-02T01:58:37.789Z,441.10
2023-01-02T01:59:10.606Z,435.17
2023-01-02T01:59:43.500Z,451.20
2023-01-02T02:00:15.903Z,449.95
2023-01-02T02:00:48.477Z,447.83
2023-01-02T02:01:20.876Z,440.30
2023-01-02T02:01:54.673Z,437.02
2023-01-02T02:02:28.557Z,446.48
2023-01-02T02:03:05.371Z,451.65
2023-01-02T02:03:38.039Z,448.60
2023-01-02T02:04:11.825Z,452.05
2023-01-02T02:04:44.738Z,451.10
2023-01-02T02:05:19.951Z,450.23
2023-01-02T02:05:52.599Z,454.58
2023-01-02T02:06:25.025Z,453.02
2023-01-02T02:06:57.468Z,449.02
2023-01-02T02:07:30.302Z,448.30
2023-01-02T02:08:25.173Z,443.02
2023-01-02T02:09:06.420Z,442.38
2023-01-02T02:09:48.707Z,445.27
2023-01-02T02:10:21.010Z,443.92
2023-01-02T02:10:53.942Z,444.27
2023-01-02T02:11:27.006Z,441.88
2023-01-02T02:12:00.000Z,440.65
2023-01-02T02:12:33.320Z,439.88
2023-01-02T02:13:05.658Z,446.48
2023-01-02T02:13:38.081Z,441.33
2023-01-02T02:14:10.640Z,447.10
2023-01-02T02:14:43.244Z,450.85
2023-01-02T02:15:18.649Z,446.48
2023-01-02T02:15:53.668Z,444.48
2023-01-02T02:16:28.786Z,436.13
2023-01-02T02:17:19.558Z,444.23
2023-01-02T02:18:01.116Z,448.45
2023-01-02T02:18:49.264Z,433.55
2023-01-02T02:19:40.787Z,439.75
2023-01-02T02:20:13.119Z,445.35
2023-01-02T02:20:54.388Z,448.17
2023-01-02T02:21:40.418Z,441.70
2023-01-02T02:22:31.970Z,446.00
2023-01-02T02:23:22.566Z,451.73
2023-01-02T02:24:02.761Z,441.85
2023-01-02T02:24:53.360Z,439.63
2023-01-02T02:25:40.613Z,439.20
2023-01-02T02:26:23.574Z,438.15
2023-01-02T02:26:55.904Z,437.38
2023-01-02T02:27:33.898Z,437.27
2023-01-02T02:28:18.147Z,437.88
2023-01-02T02:28:50.432Z,440.25
2023-01-02T02:29:31.891Z,441.33
2023-01-02T02:30:10.981Z,435.40
2023-01-02T02:30:48.378Z,433.45
2023-01-02T02:31:27.638Z,441.40
2023-01-02T02:32:06.081Z,435.70
2023-01-02T02:32:59.558Z,439.85
2023-01-02T02:33:57.052Z,434.17
2023-01-02T02:34:29.303Z,428.25
2023-01-02T02:35:04.414Z,426.55
2023-01-02T02:35:39.714Z,430.52
2023-01-02T02:36:17.760Z,440.63
2023-01-02T02:37:12.957Z,436.20
2023-01-02T02:38:03.749Z,440.25
2023-01-02T02:38:39.170Z,438.48
2023-01-02T02:39:11.947Z,429.85
2023-01-02T02:40:07.035Z,436.75
2023-01-02T02:40:39.439Z,440.45
2023-01-02T02:41:26.885Z,440.05
2023-01-02T02:42:08.271Z,437.95
2023-01-02T02:42:43.457Z,437.05
2023-01-02T02:43:21.971Z,432.95
2023-01-02T02:43:57.015Z,433.83
2023-01-02T02:44:41.213Z,438.08
2023-01-02T02:45:22.421Z,430.52
2023-01-02T02:46:09.709Z,440.92
2023-01-02T02:46:51.151Z,439.38
2023-01-02T02:47:35.209Z,438.15
2023-01-02T02:48:28.623Z,437.65
2023-01-02T02:49:00.995Z,436.33
2023-01-02T02:49:42.088Z,435.67
2023-01-02T02:50:17.169Z,432.45
2023-01-02T02:51:15.740Z,430.40
2023-01-02T02:51:52.259Z,439.67
2023-01-02T02:52:29.743Z,440.60
2023-01-02T02:53:08.376Z,439.55
2023-01-02T02:53:45.636Z,441.02
2023-01-02T02:54:23.866Z,441.20
2023-01-02T02:55:02.820Z,445.27
2023-01-02T02:55:55.476Z,446.42
2023-01-02T02:56:28.607Z,446.17
2023-01-02T02:57:02.636Z,436.98
2023-01-02T02:57:35.295Z,444.88
2023-01-02T02:58:08.323Z,447.23
2023-01-02T02:58:41.810Z,443.33
2023-01-02T02:59:14.429Z,444.23
2023-01-02T02:59:46.942Z,442.95
2023-01-02T03:00:20.590Z,442.88
2023-01-02T03:01:01.557Z,441.35
2023-01-02T03:01:34.094Z,442.27
2023-01-02T03:02:06.752Z,438.10
2023-01-02T03:02:39.505Z,444.40
2023-01-02T03:03:22.502Z,437.05
2023-01-02T03:03:55.028Z,432.17
2023-01-02T03:04:27.318Z,441.05
2023-01-02T03:05:03.088Z,438.30
2023-01-02T03:05:37.886Z,439.80
2023-01-02T03:06:19.672Z,440.15
2023-01-02T03:06:51.923Z,439.08
2023-01-02T03:07:35.757Z,436.20
2023-01-02T03:08:19.243Z,436.65
2023-01-02T03:09:09.093Z,439.88
2023-01-02T03:09:41.725Z,439.08
2023-01-02T03:10:16.998Z,441.15
2023-01-02T03:10:49.280Z,435.20
2023-01-02T03:11:26.519Z,430.60
2023-01-02T03:11:58.857Z,436.30
2023-01-02T03:12:49.714Z,435.73
2023-01-02T03:13:42.132Z,431.65
2023-01-02T03:14:38.033Z,430.65
2023-01-02T03:15:18.658Z,428.30
2023-01-02T03:16:16.898Z,440.92
2023-01-02T03:16:51.224Z,433.42
2023-01-02T03:17:26.553Z,435.05
2023-01-02T03:17:58.889Z,428.42
2023-01-02T03:18:51.410Z,439.42
2023-01-02T03:19:31.984Z,429.13
2023-01-02T03:20:08.340Z,431.33
2023-01-02T03:20:51.053Z,425.25
2023-01-02T03:21:31.461Z,432.88
2023-01-02T03:22:07.460Z,436.15
2023-01-02T03:22:42.988Z,433.27
2023-01-02T03:23:20.168Z,433.25
2023-01-02T03:23:55.130Z,427.52
2023-01-02T03:24:28.192Z,433.77
2023-01-02T03:25:02.353Z,432.48
2023-01-02T03:25:35.613Z,436.30
2023-01-02T03:26:08.180Z,434.15
2023-01-02T03:26:43.204Z,427.50
2023-01-02T03:27:18.208Z,436.00
2023-01-02T03:27:51.060Z,433.88
2023-01-02T03:28:23.792Z,434.83
2023-01-02T03:28:59.383Z,436.08
2023-01-02T03:29:45.004Z,433.02
2023-01-02T03:30:19.275Z,433.05
2023-01-02T03:30:53.208Z,434.40
2023-01-02T03:31:27.975Z,436.23
2023-01-02T03:32:01.688Z,434.55
2023-01-02T03:32:35.704Z,433.55
2023-01-02T03:33:18.560Z,431.48
2023-01-02T03:33:53.507Z,430.08
2023-01-02T03:34:28.051Z,433.08
2023-01-02T03:35:02.570Z,427.58
2023-01-02T03:35:41.527Z,429.95
2023-01-02T03:36:17.047Z,433.92
2023-01-02T03:36:54.189Z,430.55
2023-01-02T03:37:29.183Z,426.42
2023-01-02T03:38:02.693Z,429.35
2023-01-02T03:38:41.518Z,423.48
2023-01-02T03:39:18.260Z,432.50
2023-01-02T03:39:53.747Z,434.90
2023-01-02T03:40:27.107Z,429.55
2023-01-02T03:41:08.675Z,430.42
2023-01-02T03:41:53.512Z,431.20
2023-01-02T03:42:29.185Z,427.55
2023-01-02T03:43:04.213Z,429.02
2023-01-02T03:43:37.333Z,429.95
2023-01-02T03:44:12.118Z,431.65
2023-01-02T03:44:47.779Z,428.95
2023-01-02T03:45:25.376Z,429.83
2023-01-02T03:46:07.122Z,435.85
2023-01-02T03:46:48.962Z,430.25
2023-01-02T03:47:39.519Z,436.17
2023-01-02T03:48:20.702Z,438.05
2023-01-02T03:49:06.883Z,436.05
2023-01-02T03:49:42.152Z,428.35
2023-01-02T03:50:18.618Z,430.17
2023-01-02T03:51:00.476Z,440.88
2023-01-02T03:51:32.834Z,427.35
2023-01-02T03:52:05.428Z,440.33
2023-01-02T03:52:38.061Z,435.27
2023-01-02T03:53:10.410Z,439.77
2023-01-02T03:53:43.438Z,430.13
2023-01-02T03:54:16.767Z,440.63
2023-01-02T03:54:49.333Z,434.90
2023-01-02T03:55:24.063Z,432.90
2023-01-02T03:56:07.478Z,439.65
2023-01-02T03:56:57.124Z,440.13
2023-01-02T03:57:53.572Z,425.70
2023-01-02T03:58:35.570Z,438.38
2023-01-02T03:59:26.048Z,433.85
2023-01-02T04:00:10.150Z,446.85
2023-01-02T04:01:04.805Z,444.52
2023-01-02T04:01:45.226Z,446.73
2023-01-02T04:02:32.252Z,433.15
2023-01-02T04:03:15.109Z,443.55
2023-01-02T04:04:10.370Z,432.23
2023-01-02T04:04:48.570Z,437.20
2023-01-02T04:05:29.842Z,439.05
2023-01-02T04:06:08.926Z,445.17
2023-01-02T04:06:45.656Z,435.90
2023-01-02T04:07:26.004Z,434.10
2023-01-02T04:08:04.022Z,442.00
2023-01-02T04:08:46.102Z,439.23
2023-01-02T04:09:22.578Z,439.85
2023-01-02T04:09:55.313Z,439.92
2023-01-02T04:10:29.118Z,446.13
2023-01-02T04:11:02.886Z,438.70
2023-01-02T04:11:36.214Z,450.15
2023-01-02T04:12:10.413Z,446.38
2023-01-02T04:12:44.738Z,444.02
2023-01-02T04:13:26.197Z,445.98
2023-01-02T04:14:00.018Z,434.67
2023-01-02T04:14:36.095Z,442.35
2023-01-02T04:15:10.085Z,439.88
2023-01-02T04:15:44.839Z,441.45
2023-01-02T04:16:19.620Z,445.27
2023-01-02T04:16:53.637Z,439.13
2023-01-02T04:17:27.115Z,445.08
2023-01-02T04:18:08.928Z,447.65
2023-01-02T04:18:47.026Z,440.13
2023-01-02T04:19:28.471Z,435.55
2023-01-02T04:20:03.557Z,439.05
2023-01-02T04:20:42.346Z,440.55
2023-01-02T04:21:17.104Z,443.65
2023-01-02T04:21:51.317Z,436.38
2023-01-02T04:22:39.575Z,434.75
2023-01-02T04:23:37.909Z,439.27
2023-01-02T04:24:10.237Z,432.70
2023-01-02T04:24:45.479Z,443.95
2023-01-02T04:25:18.831Z,436.27
2023-01-02T04:26:06.307Z,444.80
2023-01-02T04:26:50.174Z,446.05
2023-01-02T04:27:29.994Z,443.17
2023-01-02T04:28:25.603Z,436.13
2023-01-02T04:28:58.112Z,433.75
2023-01-02T04:29:31.149Z,435.85
2023-01-02T04:30:05.961Z,440.45
2023-01-02T04:30:41.633Z,439.75
2023-01-02T04:31:17.480Z,450.52
2023-01-02T04:32:03.461Z,443.30
2023-01-02T04:32:35.905Z,446.15
2023-01-02T04:33:10.284Z,448.13
2023-01-02T04:33:47.899Z,443.02
2023-01-02T04:34:20.889Z,442.35
2023-01-02T04:34:54.025Z,441.75
2023-01-02T04:35:26.595Z,445.40
2023-01-02T04:35:58.915Z,442.35
2023-01-02T04:36:31.367Z,439.58
2023-01-02T04:37:03.704Z,442.52
2023-01-02T04:37:40.250Z,438.00
2023-01-02T04:38:12.903Z,436.95
2023-01-02T04:38:45.682Z,445.83
2023-01-02T04:39:20.360Z,442.88
2023-01-02T04:39:53.851Z,445.23
2023-01-02T04:40:28.944Z,440.92
2023-01-02T04:41:01.576Z,438.75
2023-01-02T04:41:34.151Z,435.73
2023-01-02T04:42:06.622Z,439.67
2023-01-02T04:42:38.920Z,439.98
2023-01-02T04:43:19.613Z,439.63
2023-01-02T04:43:52.046Z,438.40
2023-01-02T04:44:24.471Z,434.73
2023-01-02T04:44:56.943Z,440.23
2023-01-02T04:45:29.502Z,435.63
2023-01-02T04:46:02.560Z,437.85
2023-01-02T04:46:34.969Z,427.75
2023-01-02T04:47:09.060Z,438.20
2023-01-02T04:47:42.417Z,438.58
2023-01-02T04:48:15.287Z,438.83
2023-01-02T04:48:47.952Z,438.05
2023-01-02T04:49:20.478Z,437.88
2023-01-02T04:49:52.854Z,439.75
2023-01-02T04:50:26.031Z,435.35
2023-01-02T04:50:58.392Z,443.15
2023-01-02T04:51:30.747Z,430.95
2023-01-02T04:52:03.175Z,439.63
2023-01-02T04:52:37.336Z,441.00
2023-01-02T04:53:11.477Z,440.40
2023-01-02T04:53:43.791Z,438.73
2023-01-02T04:54:16.059Z,440.83
2023-01-02T04:54:48.410Z,437.23
2023-01-02T04:55:21.078Z,433.98
2023-01-02T04:55:57.467Z,440.55
2023-01-02T04:56:29.808Z,442.38
2023-01-02T04:57:02.166Z,440.25
2023-01-02T04:57:36.092Z,441.92
2023-01-02T04:58:08.392Z,437.23
2023-01-02T04:58:41.336Z,437.65
2023-01-02T04:59:13.676Z,430.08
2023-01-02T04:59:45.961Z,439.75
2023-01-02T05:00:18.370Z,434.50
2023-01-02T05:00:50.648Z,434.48
2023-01-02T05:01:23.206Z,435.17
2023-01-02T05:01:55.853Z,435.55
2023-01-02T05:02:28.801Z,431.98
2023-01-02T05:03:01.818Z,434.88
2023-01-02T05:03:34.128Z,435.88
2023-01-02T05:04:06.621Z,435.90
2023-01-02T05:04:38.924Z,436.15
2023-01-02T05:05:11.266Z,433.27
2023-01-02T05:05:43.617Z,434.48
2023-01-02T05:06:16.506Z,435.40
2023-01-02T05:06:48.818Z,434.35
2023-01-02T05:07:21.183Z,428.95
2023-01-02T05:07:53.489Z,432.70
2023-01-02T05:08:25.910Z,432.98
2023-01-02T05:08:58.894Z,431.58
2023-01-02T05:09:31.208Z,433.85
2023-01-02T05:10:04.130Z,436.40
2023-01-02T05:10:36.480Z,436.15
2023-01-02T05:11:10.250Z,435.35
2023-01-02T05:11:42.682Z,435.77
2023-01-02T05:12:14.955Z,436.80
2023-01-02T05:12:47.308Z,434.98
2023-01-02T05:13:19.660Z,436.70
2023-01-02T05:13:52.198Z,435.15
2023-01-02T05:14:24.485Z,435.08
2023-01-02T05:14:56.985Z,438.30
2023-01-02T05:15:29.283Z,439.48
2023-01-02T05:16:01.972Z,438.80
2023-01-02T05:16:34.289Z,436.92
2023-01-02T05:17:06.990Z,440.75
2023-01-02T05:17:41.348Z,435.80
2023-01-02T05:18:13.697Z,436.75
2023-01-02T05:18:46.372Z,440.25
2023-01-02T05:19:18.787Z,432.50
2023-01-02T05:19:51.245Z,440.25
2023-01-02T05:20:23.903Z,439.50
2023-01-02T05:21:43.814Z,439.98
2023-01-02T05:22:34.706Z,434.38
2023-01-02T05:23:25.660Z,425.67
2023-01-02T05:23:59.364Z,429.38
2023-01-02T05:24:31.743Z,434.80
2023-01-02T05:25:04.182Z,434.45
2023-01-02T05:25:36.687Z,437.02
2023-01-02T05:26:12.147Z,434.77
2023-01-02T05:26:44.418Z,431.95
2023-01-02T05:27:16.767Z,423.63
2023-01-02T05:27:51.846Z,431.27
2023-01-02T05:28:24.183Z,430.55
2023-01-02T05:28:56.583Z,431.25
2023-01-02T05:29:29.430Z,429.20
2023-01-02T05:30:01.747Z,433.25
2023-01-02T05:30:34.559Z,431.40
2023-01-02T05:31:06.871Z,425.73
2023-01-02T05:31:40.557Z,429.58
2023-01-02T05:32:12.901Z,429.25
2023-01-02T05:32:45.295Z,425.83
2023-01-02T05:33:17.628Z,425.92
2023-01-02T05:33:56.854Z,428.42
2023-01-02T05:34:29.217Z,432.83
2023-01-02T05:35:01.739Z,432.55
2023-01-02T05:35:34.046Z,425.63
2023-01-02T05:36:07.706Z,432.30
2023-01-02T05:36:40.049Z,437.10
2023-01-02T05:37:12.358Z,437.52
2023-01-02T05:37:44.640Z,435.63
2023-01-02T05:38:17.046Z,432.05
2023-01-02T05:38:49.563Z,427.88
2023-01-02T05:39:21.880Z,429.25
2023-01-02T05:39:54.251Z,432.42
2023-01-02T05:40:26.744Z,433.77
2023-01-02T05:41:05.513Z,431.38
2023-01-02T05:41:39.440Z,427.35
2023-01-02T05:42:11.743Z,421.00
2023-01-02T05:42:44.076Z,421.70
2023-01-02T05:43:16.413Z,430.52
2023-01-02T05:43:48.905Z,429.48
2023-01-02T05:44:21.224Z,428.65
2023-01-02T05:44:53.591Z,426.92
2023-01-02T05:45:27.087Z,432.00
2023-01-02T05:45:59.720Z,431.98
2023-01-02T05:46:32.068Z,430.77
2023-01-02T05:47:04.492Z,423.52
2023-01-02T05:47:36.975Z,430.70
2023-01-02T05:48:09.429Z,428.00
2023-01-02T05:48:42.216Z,430.50
2023-01-02T05:49:14.552Z,431.67
2023-01-02T05:49:47.130Z,429.30
2023-01-02T05:50:19.647Z,430.05
2023-01-02T05:50:52.194Z,432.17
2023-01-02T05:51:24.507Z,431.55
2023-01-02T05:51:56.810Z,428.95
2023-01-02T05:52:29.159Z,428.42
2023-01-02T05:53:01.432Z,428.33
2023-01-02T05:53:33.905Z,428.80
2023-01-02T05:54:06.713Z,426.55
2023-01-02T05:54:39.097Z,429.55
2023-01-02T05:55:11.513Z,430.30
2023-01-02T05:55:44.357Z,430.45
2023-01-02T05:56:18.447Z,429.27
2023-01-02T05:56:50.848Z,428.13
2023-01-02T05:57:23.384Z,431.30
2023-01-02T05:57:56.569Z,430.73
2023-01-02T05:58:30.805Z,433.35
2023-01-02T05:59:06.882Z,428.10
2023-01-02T05:59:39.207Z,430.85
2023-01-02T06:00:11.838Z,430.63
2023-01-02T06:00:47.033Z,426.38
2023-01-02T06:01:20.721Z,430.25
2023-01-02T06:01:53.404Z,426.10
2023-01-02T06:02:26.478Z,432.40
2023-01-02T06:02:58.946Z,428.65
2023-01-02T06:03:31.550Z,422.60
2023-01-02T06:04:04.282Z,427.27
2023-01-02T06:04:36.600Z,427.10
2023-01-02T06:05:09.188Z,432.23
2023-01-02T06:05:41.463Z,425.63
2023-01-02T06:06:13.950Z,436.65
2023-01-02T06:06:47.475Z,434.55
2023-01-02T06:07:19.820Z,430.20
2023-01-02T06:07:52.247Z,432.23
2023-01-02T06:08:24.578Z,432.98
2023-01-02T06:08:58.088Z,433.90
2023-01-02T06:09:30.356Z,430.90
2023-01-02T06:10:02.655Z,434.13
2023-01-02T06:10:35.043Z,433.85
2023-01-02T06:11:07.850Z,434.20
2023-01-02T06:11:40.669Z,435.48
2023-01-02T06:12:12.969Z,433.50
2023-01-02T06:12:45.182Z,436.00
2023-01-02T06:13:17.808Z,425.23
2023-01-02T06:13:50.129Z,435.42
2023-01-02T06:14:24.273Z,431.60
2023-01-02T06:14:56.702Z,435.58
2023-01-02T06:15:29.045Z,433.38
2023-01-02T06:16:01.812Z,432.35
2023-01-02T06:16:34.348Z,431.90
2023-01-02T06:17:06.624Z,429.45
2023-01-02T06:17:39.030Z,428.25
2023-01-02T06:18:11.505Z,433.08
2023-01-02T06:18:44.003Z,435.15
2023-01-02T06:19:16.343Z,432.08
2023-01-02T06:19:53.715Z,433.10
2023-01-02T06:20:26.644Z,429.08
2023-01-02T06:20:59.866Z,430.98
2023-01-02T06:21:32.292Z,432.48
2023-01-02T06:22:04.731Z,426.10
2023-01-02T06:22:37.096Z,430.13
2023-01-02T06:23:09.430Z,434.40
2023-01-02T06:23:42.184Z,426.80
2023-01-02T06:24:14.503Z,429.27
2023-01-02T06:24:46.883Z,432.45
2023-01-02T06:25:19.548Z,430.67
2023-01-02T06:25:51.895Z,433.08
2023-01-02T06:26:28.699Z,434.33
2023-01-02T06:27:03.676Z,431.35
2023-01-02T06:27:36.016Z,427.67
2023-01-02T06:28:08.273Z,418.15
2023-01-02T06:28:40.584Z,415.45
2023-01-02T06:29:13.250Z,418.02
2023-01-02T06:29:45.597Z,421.33
2023-01-02T06:30:17.943Z,418.17
2023-01-02T06:30:50.237Z,418.17
2023-01-02T06:31:23.605Z,417.23
2023-01-02T06:31:56.013Z,415.15
2023-01-02T06:32:28.377Z,422.45
2023-01-02T06:33:00.645Z,421.98
2023-01-02T06:33:33.407Z,415.48
2023-01-02T06:34:05.704Z,423.30
2023-01-02T06:34:37.999Z,425.08
2023-01-02T06:35:11.161Z,426.42
2023-01-02T06:35:43.442Z,429.27
2023-01-02T06:36:17.303Z,427.98
2023-01-02T06:36:49.819Z,426.58
2023-01-02T06:37:22.162Z,426.35
2023-01-02T06:37:54.503Z,419.15
2023-01-02T06:38:27.439Z,425.50
2023-01-02T06:38:59.941Z,418.00
2023-01-02T06:39:32.981Z,422.13
2023-01-02T06:40:05.697Z,421.40
2023-01-02T06:40:38.174Z,416.80
2023-01-02T06:41:10.742Z,418.23
2023-01-02T06:41:43.557Z,418.27
2023-01-02T06:42:15.903Z,421.58
2023-01-02T06:42:48.251Z,425.13
2023-01-02T06:43:20.672Z,423.05
2023-01-02T06:43:53.155Z,419.55
2023-01-02T06:44:25.477Z,416.20
2023-01-02T06:44:57.837Z,414.00
2023-01-02T06:45:30.206Z,420.30
2023-01-02T06:46:04.657Z,416.63
2023-01-02T06:46:36.971Z,414.13
2023-01-02T06:47:09.358Z,416.70
2023-01-02T06:47:41.663Z,421.77
2023-01-02T06:48:14.317Z,420.45
2023-01-02T06:48:47.253Z,417.05
2023-01-02T06:49:19.775Z,419.65
2023-01-02T06:49:52.573Z,422.30
2023-01-02T06:50:29.889Z,421.40
2023-01-02T06:51:07.962Z,422.98
2023-01-02T06:51:40.286Z,421.20
2023-01-02T06:52:12.607Z,417.73
2023-01-02T06:52:44.887Z,416.08
2023-01-02T06:53:17.421Z,420.92
2023-01-02T06:53:50.143Z,422.23
2023-01-02T06:54:22.669Z,423.15
2023-01-02T06:54:56.022Z,423.27
2023-01-02T06:55:29.349Z,419.45
2023-01-02T06:56:01.742Z,417.27
2023-01-02T06:56:34.030Z,420.50
2023-01-02T06:57:06.410Z,421.35
2023-01-02T06:57:38.668Z,416.27
2023-01-02T06:58:16.043Z,419.10
2023-01-02T06:58:51.505Z,417.27
2023-01-02T06:59:23.794Z,418.10
2023-01-02T06:59:56.150Z,419.75
2023-01-02T07:00:28.431Z,417.63
2023-01-02T07:01:19.996Z,420.35
2023-01-02T07:01:52.528Z,428.30
2023-01-02T07:02:24.998Z,427.23
2023-01-02T07:02:57.680Z,426.23
2023-01-02T07:03:30.432Z,421.45
2023-01-02T07:04:02.716Z,427.55
2023-01-02T07:04:35.285Z,423.83
2023-01-02T07:05:07.772Z,425.67
2023-01-02T07:05:40.977Z,424.20
2023-01-02T07:06:14.579Z,421.92
2023-01-02T07:06:47.122Z,422.63
2023-01-02T07:07:19.556Z,420.67
2023-01-02T07:07:52.057Z,420.23
2023-01-02T07:08:24.488Z,424.38
2023-01-02T07:08:56.765Z,420.05
2023-01-02T07:09:29.516Z,415.63
2023-01-02T07:10:01.797Z,416.73
2023-01-02T07:10:34.225Z,418.55
2023-01-02T07:11:07.726Z,419.00
2023-01-02T07:11:40.166Z,427.10
2023-01-02T07:12:12.474Z,429.15
2023-01-02T07:12:45.004Z,427.55
2023-01-02T07:13:17.286Z,422.50
2023-01-02T07:13:50.829Z,422.75
2023-01-02T07:14:23.190Z,420.58
2023-01-02T07:14:55.458Z,425.92
2023-01-02T07:15:27.897Z,422.10
2023-01-02T07:16:05.079Z,425.25
2023-01-02T07:16:37.466Z,419.77